AFR33Y SPJC-LFPG
Flight info
| Callsign | AFR33Y |
|---|---|
| Flight time | N/A |
| Altitude | 31000 |
| Route | AMVEX UM414 MAJAZ/N0502F330 UM414 ILMUX/N0502F320 UM414 EVSOR/N0498F340 UM414 PBL/N0497F330 DCT KIKER DCT OBIKE/M084F350 M576 RKDIA DCT 24N055W 28N050W 35N045W 42N040W/M084F370 48N030W 50N020W DCT SOMAX DCT ATSUR DCT GAPLI/N0477F370 DCT ANNET UM25 INGOR/N0443F280 UM25 LUKIP |
| Aircraft | B77W/H-SDE1E2E3FGHIJ2J3J4J5M1RWXY/LB1D1 |
Departure
| Time | 2026-05-08 03:25 |
|---|---|
| Airport | Jorge Chávez International Airport (SPJC) |
Arrival
| Time | N/A |
|---|---|
| Airport | Charles de Gaulle International Airport (LFPG) |
| Time | Latitude | Longitude | Altitude | Speed | Heading |
|---|---|---|---|---|---|
| 2026-05-08 03:04 | -12.02276 | -77.11005 | 96 ft | 0 kts | 64° |
| 2026-05-08 03:12 | -12.02276 | -77.11006 | 96 ft | 1 kts | 64° |
| 2026-05-08 03:12 | -12.02283 | -77.11020 | 96 ft | 3 kts | 64° |
| 2026-05-08 03:13 | -12.02292 | -77.11038 | 97 ft | 3 kts | 64° |
| 2026-05-08 03:13 | -12.02301 | -77.11057 | 96 ft | 3 kts | 64° |
| 2026-05-08 03:13 | -12.02310 | -77.11075 | 94 ft | 3 kts | 63° |
| 2026-05-08 03:13 | -12.02319 | -77.11090 | 94 ft | 3 kts | 41° |
| 2026-05-08 03:14 | -12.02333 | -77.11100 | 93 ft | 3 kts | 19° |
| 2026-05-08 03:14 | -12.02352 | -77.11105 | 93 ft | 3 kts | 15° |
| 2026-05-08 03:14 | -12.02367 | -77.11110 | 93 ft | 1 kts | 19° |
| 2026-05-08 03:14 | -12.02380 | -77.11114 | 93 ft | 3 kts | 9° |
| 2026-05-08 03:15 | -12.02398 | -77.11116 | 93 ft | 3 kts | 350° |
| 2026-05-08 03:15 | -12.02417 | -77.11111 | 96 ft | 3 kts | 337° |
| 2026-05-08 03:15 | -12.02430 | -77.11105 | 92 ft | 1 kts | 334° |
| 2026-05-08 03:18 | -12.02427 | -77.11106 | 92 ft | 2 kts | 334° |
| 2026-05-08 03:18 | -12.02401 | -77.11119 | 93 ft | 6 kts | 334° |
| 2026-05-08 03:18 | -12.02349 | -77.11144 | 96 ft | 10 kts | 334° |
| 2026-05-08 03:18 | -12.02273 | -77.11181 | 95 ft | 14 kts | 335° |
| 2026-05-08 03:19 | -12.02173 | -77.11229 | 92 ft | 18 kts | 333° |
| 2026-05-08 03:19 | -12.02048 | -77.11290 | 90 ft | 22 kts | 335° |
| 2026-05-08 03:19 | -12.01900 | -77.11364 | 87 ft | 26 kts | 334° |
| 2026-05-08 03:19 | -12.01729 | -77.11448 | 83 ft | 29 kts | 335° |
| 2026-05-08 03:20 | -12.01558 | -77.11533 | 67 ft | 26 kts | 334° |
| 2026-05-08 03:20 | -12.01387 | -77.11617 | 64 ft | 27 kts | 335° |
| 2026-05-08 03:20 | -12.01241 | -77.11690 | 64 ft | 22 kts | 334° |
| 2026-05-08 03:20 | -12.01095 | -77.11762 | 62 ft | 19 kts | 333° |
| 2026-05-08 03:21 | -12.00968 | -77.11824 | 61 ft | 22 kts | 335° |
| 2026-05-08 03:21 | -12.00833 | -77.11891 | 58 ft | 22 kts | 334° |
| 2026-05-08 03:21 | -12.00709 | -77.11952 | 54 ft | 18 kts | 333° |
| 2026-05-08 03:21 | -12.00672 | -77.12011 | 56 ft | 8 kts | 261° |
| 2026-05-08 03:22 | -12.00704 | -77.12079 | 51 ft | 12 kts | 232° |
| 2026-05-08 03:22 | -12.00795 | -77.12111 | 51 ft | 16 kts | 181° |
| 2026-05-08 03:22 | -12.00864 | -77.12086 | 50 ft | 0 kts | 154° |
| 2026-05-08 03:24 | -12.00884 | -77.12076 | 52 ft | 12 kts | 154° |
| 2026-05-08 03:24 | -12.01235 | -77.11903 | 58 ft | 99 kts | 154° |
| 2026-05-08 03:24 | -12.02059 | -77.11497 | 67 ft | 165 kts | 154° |
| 2026-05-08 03:24 | -12.03236 | -77.10928 | 302 ft | 197 kts | 156° |
| 2026-05-08 03:25 | -12.04507 | -77.10325 | 869 ft | 207 kts | 156° |
| 2026-05-08 03:25 | -12.05848 | -77.09730 | 1446 ft | 211 kts | 157° |
| 2026-05-08 03:25 | -12.07181 | -77.09125 | 2139 ft | 208 kts | 153° |
| 2026-05-08 03:25 | -12.08522 | -77.08418 | 2369 ft | 228 kts | 152° |
| 2026-05-08 03:26 | -12.09985 | -77.07649 | 2663 ft | 243 kts | 153° |
| 2026-05-08 03:26 | -12.11523 | -77.06862 | 3122 ft | 251 kts | 153° |
| 2026-05-08 03:26 | -12.13116 | -77.06092 | 3609 ft | 255 kts | 160° |
| 2026-05-08 03:26 | -12.14879 | -77.05957 | 3938 ft | 263 kts | 197° |
| 2026-05-08 03:27 | -12.15793 | -77.06369 | 4174 ft | 266 kts | 216° |
| 2026-05-08 03:27 | -12.17007 | -77.07793 | 4697 ft | 272 kts | 244° |
| 2026-05-08 03:27 | -12.17504 | -77.09661 | 5203 ft | 276 kts | 266° |
| 2026-05-08 03:27 | -12.17413 | -77.11628 | 5740 ft | 277 kts | 277° |
| 2026-05-08 03:28 | -12.17117 | -77.13582 | 6023 ft | 282 kts | 279° |
| 2026-05-08 03:28 | -12.16788 | -77.15569 | 5980 ft | 284 kts | 278° |
| 2026-05-08 03:28 | -12.16471 | -77.17561 | 5983 ft | 282 kts | 278° |
| 2026-05-08 03:28 | -12.16177 | -77.19534 | 5999 ft | 279 kts | 277° |
| 2026-05-08 03:29 | -12.15895 | -77.21494 | 6012 ft | 278 kts | 277° |
| 2026-05-08 03:29 | -12.15618 | -77.23451 | 6013 ft | 279 kts | 277° |
| 2026-05-08 03:29 | -12.15306 | -77.25402 | 6345 ft | 279 kts | 285° |
| 2026-05-08 03:29 | -12.14377 | -77.27144 | 6622 ft | 287 kts | 318° |
| 2026-05-08 03:30 | -12.10862 | -77.29053 | 7466 ft | 292 kts | 332° |
| 2026-05-08 03:30 | -12.07324 | -77.31042 | 8623 ft | 294 kts | 331° |
| 2026-05-08 03:31 | -12.03724 | -77.33063 | 9750 ft | 297 kts | 331° |
| 2026-05-08 03:31 | -12.00027 | -77.35123 | 10545 ft | 310 kts | 332° |
| 2026-05-08 03:32 | -11.98111 | -77.36189 | 10908 ft | 320 kts | 332° |
| 2026-05-08 03:32 | -11.96088 | -77.37314 | 10995 ft | 341 kts | 332° |
| 2026-05-08 03:32 | -11.93946 | -77.38504 | 11152 ft | 359 kts | 332° |
| 2026-05-08 03:32 | -11.91701 | -77.39752 | 11311 ft | 377 kts | 332° |
| 2026-05-08 03:33 | -11.89364 | -77.41051 | 11746 ft | 385 kts | 332° |
| 2026-05-08 03:33 | -11.87004 | -77.42363 | 12377 ft | 388 kts | 332° |
| 2026-05-08 03:33 | -11.84624 | -77.43686 | 12946 ft | 392 kts | 332° |
| 2026-05-08 03:33 | -11.82207 | -77.45027 | 13477 ft | 399 kts | 332° |
| 2026-05-08 03:34 | -11.79741 | -77.46357 | 13881 ft | 402 kts | 337° |
| 2026-05-08 03:34 | -11.77051 | -77.47056 | 14160 ft | 403 kts | 0° |
| 2026-05-08 03:34 | -11.74290 | -77.46616 | 14634 ft | 403 kts | 20° |
| 2026-05-08 03:34 | -11.71771 | -77.45366 | 15088 ft | 403 kts | 35° |
| 2026-05-08 03:35 | -11.69474 | -77.43704 | 15407 ft | 409 kts | 37° |
| 2026-05-08 03:35 | -11.67141 | -77.42006 | 15869 ft | 413 kts | 36° |
| 2026-05-08 03:35 | -11.64794 | -77.40313 | 16478 ft | 413 kts | 36° |
| 2026-05-08 03:35 | -11.62439 | -77.38626 | 17031 ft | 416 kts | 36° |
| 2026-05-08 03:36 | -11.60061 | -77.36929 | 17528 ft | 419 kts | 36° |
| 2026-05-08 03:36 | -11.57657 | -77.35218 | 18034 ft | 422 kts | 36° |
| 2026-05-08 03:36 | -11.55244 | -77.33504 | 18492 ft | 424 kts | 36° |
| 2026-05-08 03:36 | -11.52816 | -77.31781 | 18914 ft | 427 kts | 36° |
| 2026-05-08 03:37 | -11.50363 | -77.30041 | 19319 ft | 431 kts | 36° |
| 2026-05-08 03:37 | -11.47897 | -77.28293 | 19724 ft | 434 kts | 36° |
| 2026-05-08 03:37 | -11.45408 | -77.26528 | 20135 ft | 437 kts | 36° |
| 2026-05-08 03:37 | -11.42904 | -77.24752 | 20539 ft | 440 kts | 36° |
| 2026-05-08 03:38 | -11.40378 | -77.22963 | 20953 ft | 443 kts | 36° |
| 2026-05-08 03:38 | -11.37838 | -77.21164 | 21358 ft | 446 kts | 36° |
| 2026-05-08 03:38 | -11.35311 | -77.19375 | 21749 ft | 449 kts | 35° |
| 2026-05-08 03:38 | -11.32734 | -77.17551 | 22142 ft | 453 kts | 35° |
| 2026-05-08 03:39 | -11.30142 | -77.15716 | 22523 ft | 456 kts | 35° |
| 2026-05-08 03:39 | -11.27524 | -77.13862 | 22918 ft | 459 kts | 35° |
| 2026-05-08 03:39 | -11.24892 | -77.12001 | 23309 ft | 462 kts | 35° |
| 2026-05-08 03:39 | -11.22247 | -77.10129 | 23668 ft | 465 kts | 35° |
| 2026-05-08 03:40 | -11.19585 | -77.08244 | 23985 ft | 468 kts | 35° |
| 2026-05-08 03:40 | -11.16904 | -77.06344 | 24312 ft | 470 kts | 35° |
| 2026-05-08 03:40 | -11.14215 | -77.04439 | 24643 ft | 473 kts | 35° |
| 2026-05-08 03:40 | -11.11506 | -77.02520 | 24960 ft | 475 kts | 35° |
| 2026-05-08 03:41 | -11.08792 | -77.00597 | 25289 ft | 478 kts | 35° |
| 2026-05-08 03:41 | -11.06051 | -76.98656 | 25609 ft | 480 kts | 35° |
| 2026-05-08 03:41 | -11.03304 | -76.96713 | 25928 ft | 483 kts | 34° |
| 2026-05-08 03:41 | -11.00532 | -76.94752 | 26244 ft | 486 kts | 34° |
| 2026-05-08 03:42 | -10.97746 | -76.92780 | 26560 ft | 489 kts | 34° |
| 2026-05-08 03:42 | -10.94948 | -76.90801 | 26874 ft | 491 kts | 34° |
| 2026-05-08 03:42 | -10.92132 | -76.88808 | 27172 ft | 494 kts | 34° |
| 2026-05-08 03:42 | -10.89305 | -76.86809 | 27466 ft | 497 kts | 34° |
| 2026-05-08 03:43 | -10.86464 | -76.84800 | 27763 ft | 499 kts | 34° |
| 2026-05-08 03:43 | -10.83607 | -76.82779 | 28069 ft | 501 kts | 34° |
| 2026-05-08 03:43 | -10.80740 | -76.80753 | 28340 ft | 503 kts | 34° |
| 2026-05-08 03:43 | -10.77797 | -76.78809 | 28573 ft | 505 kts | 29° |
| 2026-05-08 03:44 | -10.74711 | -76.77081 | 28828 ft | 507 kts | 26° |
| 2026-05-08 03:44 | -10.71555 | -76.75465 | 29089 ft | 509 kts | 25° |
| 2026-05-08 03:44 | -10.68408 | -76.73893 | 29316 ft | 512 kts | 25° |
| 2026-05-08 03:44 | -10.65168 | -76.72263 | 29576 ft | 514 kts | 25° |
| 2026-05-08 03:45 | -10.62019 | -76.70649 | 29870 ft | 514 kts | 26° |
| 2026-05-08 03:45 | -10.58842 | -76.68990 | 30221 ft | 513 kts | 26° |
| 2026-05-08 03:45 | -10.55680 | -76.67318 | 30536 ft | 513 kts | 26° |
| 2026-05-08 03:45 | -10.52519 | -76.65636 | 30793 ft | 513 kts | 26° |
| 2026-05-08 03:46 | -10.49360 | -76.63951 | 31054 ft | 513 kts | 26° |
| 2026-05-08 03:46 | -10.43001 | -76.60560 | 31196 ft | 516 kts | 26° |
| 2026-05-08 03:47 | -10.36671 | -76.57190 | 31211 ft | 512 kts | 26° |
| 2026-05-08 03:47 | -10.30367 | -76.53840 | 31212 ft | 510 kts | 26° |
| 2026-05-08 03:48 | -10.24083 | -76.50503 | 31205 ft | 510 kts | 26° |
| 2026-05-08 03:48 | -10.17541 | -76.47032 | 31196 ft | 510 kts | 26° |
| 2026-05-08 03:49 | -9.92678 | -76.33849 | 31218 ft | 513 kts | 26° |
| 2026-05-08 03:49 | -9.67273 | -76.20404 | 31123 ft | 515 kts | 26° |
| 2026-05-08 03:50 | -9.41926 | -76.07009 | 31058 ft | 513 kts | 26° |
| 2026-05-08 03:50 | -9.16399 | -75.93933 | 30978 ft | 515 kts | 24° |
| 2026-05-08 03:51 | -8.90629 | -75.81217 | 30948 ft | 516 kts | 25° |
| 2026-05-08 03:51 | -8.64880 | -75.68497 | 30924 ft | 515 kts | 25° |
| 2026-05-08 03:52 | -8.39080 | -75.55770 | 30914 ft | 517 kts | 25° |
| 2026-05-08 03:52 | -8.13206 | -75.43026 | 30888 ft | 517 kts | 25° |
| 2026-05-08 03:53 | -7.87483 | -75.30374 | 30855 ft | 518 kts | 25° |
| 2026-05-08 03:53 | -7.61552 | -75.17648 | 30861 ft | 518 kts | 25° |
| 2026-05-08 03:54 | -7.38849 | -75.06528 | 31011 ft | 522 kts | 25° |
| 2026-05-08 03:54 | -7.31449 | -75.02907 | 31562 ft | 522 kts | 25° |
| 2026-05-08 03:54 | -7.28189 | -75.01312 | 31886 ft | 520 kts | 24° |
| 2026-05-08 03:54 | -7.24944 | -74.99723 | 32202 ft | 518 kts | 24° |
| 2026-05-08 03:55 | -7.21707 | -74.98139 | 32489 ft | 517 kts | 24° |
| 2026-05-08 03:55 | -7.18476 | -74.96558 | 32750 ft | 517 kts | 24° |
| 2026-05-08 03:55 | -7.16254 | -74.95471 | 32816 ft | 518 kts | 24° |
| 2026-05-08 03:56 | -6.91375 | -74.83310 | 32950 ft | 525 kts | 24° |
| 2026-05-08 03:56 | -6.65388 | -74.70620 | 32861 ft | 510 kts | 24° |
| 2026-05-08 03:57 | -6.39634 | -74.58063 | 32965 ft | 523 kts | 24° |
| 2026-05-08 03:57 | -6.13441 | -74.45302 | 32879 ft | 515 kts | 25° |
| 2026-05-08 03:58 | -5.87798 | -74.32826 | 32962 ft | 516 kts | 25° |
| 2026-05-08 03:58 | -5.61576 | -74.20079 | 32911 ft | 523 kts | 25° |
| 2026-05-08 03:58 | -5.48619 | -74.13784 | 32873 ft | 512 kts | 25° |
| 2026-05-08 03:59 | -5.35859 | -74.07590 | 32912 ft | 510 kts | 25° |
| 2026-05-08 03:59 | -5.09836 | -73.94966 | 32984 ft | 526 kts | 25° |
| 2026-05-08 04:00 | -4.83888 | -73.82387 | 32890 ft | 510 kts | 25° |
| 2026-05-08 04:00 | -4.58013 | -73.69854 | 32992 ft | 525 kts | 25° |
| 2026-05-08 04:01 | -4.31993 | -73.57268 | 32903 ft | 515 kts | 25° |
| 2026-05-08 04:01 | -4.06257 | -73.44827 | 32993 ft | 520 kts | 25° |
| 2026-05-08 04:02 | -3.82166 | -73.33186 | 32921 ft | 524 kts | 25° |
| 2026-05-08 04:02 | -3.70075 | -73.28435 | 32886 ft | 513 kts | 17° |
| 2026-05-08 04:02 | -3.56613 | -73.23798 | 32940 ft | 514 kts | 18° |
| 2026-05-08 04:03 | -3.29140 | -73.14089 | 33001 ft | 528 kts | 18° |
| 2026-05-08 04:03 | -3.01921 | -73.04484 | 32902 ft | 511 kts | 18° |
| 2026-05-08 04:03 | -2.88432 | -72.99733 | 32966 ft | 518 kts | 18° |
| 2026-05-08 04:04 | -2.60872 | -72.90054 | 32940 ft | 524 kts | 19° |
| 2026-05-08 04:04 | -2.47257 | -72.85272 | 32900 ft | 513 kts | 19° |
| 2026-05-08 04:04 | -2.34043 | -72.80635 | 32946 ft | 511 kts | 19° |
| 2026-05-08 04:05 | -2.06763 | -72.71061 | 32976 ft | 526 kts | 19° |
| 2026-05-08 04:05 | -1.79634 | -72.61541 | 32911 ft | 509 kts | 19° |
| 2026-05-08 04:06 | -1.52578 | -72.52052 | 33010 ft | 524 kts | 19° |
| 2026-05-08 04:06 | -1.25220 | -72.42457 | 32903 ft | 512 kts | 19° |
| 2026-05-08 04:07 | -0.98401 | -72.33055 | 33013 ft | 518 kts | 19° |
| 2026-05-08 04:07 | -0.70956 | -72.23435 | 32945 ft | 518 kts | 19° |
| 2026-05-08 04:08 | -0.57523 | -72.18726 | 32909 ft | 507 kts | 19° |
| 2026-05-08 04:08 | -0.44214 | -72.14062 | 32966 ft | 509 kts | 19° |
| 2026-05-08 04:08 | -0.16977 | -72.04515 | 32975 ft | 522 kts | 19° |
| 2026-05-08 04:09 | -0.03401 | -71.99756 | 32935 ft | 511 kts | 19° |
| 2026-05-08 04:09 | 0.09962 | -71.95060 | 32953 ft | 510 kts | 19° |
| 2026-05-08 04:09 | 0.37072 | -71.85525 | 32995 ft | 524 kts | 19° |
| 2026-05-08 04:10 | 0.64293 | -71.75950 | 32918 ft | 506 kts | 19° |
| 2026-05-08 04:10 | 0.91028 | -71.66547 | 33026 ft | 522 kts | 19° |
| 2026-05-08 04:11 | 1.18174 | -71.56996 | 32917 ft | 509 kts | 19° |
| 2026-05-08 04:11 | 1.44890 | -71.47596 | 33029 ft | 517 kts | 19° |
| 2026-05-08 04:12 | 1.72176 | -71.37992 | 32941 ft | 512 kts | 19° |
| 2026-05-08 04:12 | 1.98708 | -71.28651 | 32995 ft | 509 kts | 19° |
| 2026-05-08 04:13 | 2.25802 | -71.19108 | 32961 ft | 514 kts | 19° |
| 2026-05-08 04:13 | 2.39138 | -71.14409 | 32911 ft | 503 kts | 19° |
| 2026-05-08 04:13 | 2.52314 | -71.09767 | 32967 ft | 502 kts | 18° |
| 2026-05-08 04:14 | 2.79159 | -71.00305 | 32995 ft | 516 kts | 18° |
| 2026-05-08 04:14 | 3.05754 | -70.90925 | 32926 ft | 498 kts | 18° |
| 2026-05-08 04:15 | 3.32288 | -70.81564 | 33031 ft | 514 kts | 18° |
| 2026-05-08 04:15 | 3.58848 | -70.72185 | 32916 ft | 500 kts | 18° |
| 2026-05-08 04:16 | 3.85107 | -70.62944 | 32995 ft | 508 kts | 17° |
| 2026-05-08 04:16 | 4.12005 | -70.53601 | 32945 ft | 506 kts | 18° |
| 2026-05-08 04:17 | 4.38164 | -70.44498 | 32970 ft | 498 kts | 18° |
| 2026-05-08 04:17 | 4.64821 | -70.35212 | 32994 ft | 511 kts | 18° |
| 2026-05-08 04:18 | 4.91252 | -70.25801 | 32920 ft | 496 kts | 18° |
| 2026-05-08 04:18 | 5.17551 | -70.16422 | 33009 ft | 511 kts | 18° |
| 2026-05-08 04:19 | 5.44185 | -70.06910 | 32912 ft | 499 kts | 18° |
| 2026-05-08 04:19 | 5.70219 | -69.97607 | 32998 ft | 502 kts | 18° |
| 2026-05-08 04:20 | 5.96791 | -69.88099 | 32942 ft | 504 kts | 18° |
| 2026-05-08 04:20 | 6.22792 | -69.78788 | 32961 ft | 495 kts | 18° |
| 2026-05-08 04:21 | 6.49179 | -69.69321 | 32992 ft | 508 kts | 18° |
| 2026-05-08 04:21 | 6.75212 | -69.59583 | 32909 ft | 491 kts | 18° |
| 2026-05-08 04:22 | 7.01041 | -69.49936 | 32999 ft | 507 kts | 18° |
| 2026-05-08 04:22 | 7.27454 | -69.40051 | 32894 ft | 495 kts | 18° |
| 2026-05-08 04:23 | 7.52961 | -69.29888 | 32990 ft | 505 kts | 20° |
| 2026-05-08 04:23 | 7.79054 | -69.18992 | 32902 ft | 499 kts | 20° |
| 2026-05-08 04:24 | 8.04458 | -69.08368 | 32962 ft | 498 kts | 20° |
| 2026-05-08 04:24 | 8.29878 | -68.97717 | 32935 ft | 503 kts | 21° |
| 2026-05-08 04:25 | 8.42656 | -68.92358 | 32894 ft | 492 kts | 21° |
| 2026-05-08 04:25 | 8.55280 | -68.87060 | 32920 ft | 491 kts | 21° |
| 2026-05-08 04:25 | 8.80968 | -68.76265 | 32974 ft | 506 kts | 21° |
| 2026-05-08 04:26 | 9.06535 | -68.65502 | 32900 ft | 489 kts | 21° |
| 2026-05-08 04:26 | 9.31911 | -68.54872 | 32999 ft | 501 kts | 21° |
| 2026-05-08 04:27 | 9.57453 | -68.44148 | 32904 ft | 488 kts | 21° |
| 2026-05-08 04:27 | 9.82445 | -68.33642 | 33031 ft | 497 kts | 21° |
| 2026-05-08 04:28 | 10.08229 | -68.22983 | 32961 ft | 489 kts | 18° |
| 2026-05-08 04:28 | 10.33640 | -68.13419 | 33041 ft | 493 kts | 18° |
| 2026-05-08 04:29 | 10.58788 | -68.01704 | 32950 ft | 495 kts | 28° |
| 2026-05-08 04:29 | 10.82281 | -67.87753 | 33006 ft | 491 kts | 28° |
| 2026-05-08 04:30 | 11.06222 | -67.73550 | 32975 ft | 497 kts | 27° |
| 2026-05-08 04:30 | 11.17898 | -67.66611 | 32950 ft | 486 kts | 27° |
| 2026-05-08 04:30 | 11.29677 | -67.59609 | 32975 ft | 483 kts | 27° |
| 2026-05-08 04:31 | 11.53295 | -67.45549 | 33045 ft | 500 kts | 27° |
| 2026-05-08 04:31 | 11.76885 | -67.31469 | 32957 ft | 485 kts | 27° |
| 2026-05-08 04:32 | 12.00170 | -67.17553 | 33033 ft | 491 kts | 27° |
| 2026-05-08 04:32 | 12.23988 | -67.03281 | 32993 ft | 493 kts | 28° |
| 2026-05-08 04:33 | 12.47247 | -66.89319 | 33002 ft | 481 kts | 28° |
| 2026-05-08 04:33 | 12.70688 | -66.75219 | 33050 ft | 496 kts | 28° |
| 2026-05-08 04:34 | 12.94238 | -66.61016 | 32958 ft | 481 kts | 28° |
| 2026-05-08 04:34 | 13.17325 | -66.47071 | 33042 ft | 489 kts | 28° |
| 2026-05-08 04:35 | 13.40995 | -66.32734 | 32981 ft | 490 kts | 28° |
| 2026-05-08 04:35 | 13.52594 | -66.25697 | 32964 ft | 479 kts | 28° |
| 2026-05-08 04:35 | 13.64028 | -66.18754 | 33013 ft | 478 kts | 28° |
| 2026-05-08 04:36 | 13.87312 | -66.04591 | 33058 ft | 493 kts | 28° |
| 2026-05-08 04:36 | 14.10568 | -65.90407 | 32968 ft | 476 kts | 29° |
| 2026-05-08 04:37 | 14.33381 | -65.76465 | 33074 ft | 484 kts | 29° |
| 2026-05-08 04:37 | 14.56628 | -65.62219 | 32994 ft | 480 kts | 29° |
| 2026-05-08 04:38 | 14.79247 | -65.48326 | 33034 ft | 472 kts | 29° |
| 2026-05-08 04:38 | 15.02194 | -65.34193 | 33046 ft | 484 kts | 30° |
| 2026-05-08 04:39 | 15.23662 | -65.18300 | 33015 ft | 467 kts | 37° |
| 2026-05-08 04:39 | 15.44334 | -65.01553 | 33080 ft | 480 kts | 37° |
| 2026-05-08 04:40 | 15.65283 | -64.84534 | 32980 ft | 470 kts | 37° |
| 2026-05-08 04:40 | 15.85665 | -64.67936 | 33065 ft | 468 kts | 37° |
| 2026-05-08 04:41 | 15.93429 | -64.61601 | 33388 ft | 473 kts | 37° |
| 2026-05-08 04:41 | 15.97239 | -64.58489 | 33819 ft | 473 kts | 37° |
| 2026-05-08 04:41 | 15.99783 | -64.56411 | 34148 ft | 471 kts | 37° |
| 2026-05-08 04:41 | 16.02352 | -64.54312 | 34455 ft | 469 kts | 37° |
| 2026-05-08 04:42 | 16.04909 | -64.52221 | 34739 ft | 467 kts | 37° |
| 2026-05-08 04:42 | 16.07460 | -64.50135 | 34951 ft | 467 kts | 37° |
| 2026-05-08 04:42 | 16.22568 | -64.37768 | 35062 ft | 475 kts | 37° |
| 2026-05-08 04:43 | 16.36175 | -64.26605 | 34999 ft | 463 kts | 37° |
| 2026-05-08 04:43 | 16.46166 | -64.18398 | 35002 ft | 454 kts | 37° |
| 2026-05-08 04:43 | 16.62821 | -64.04692 | 35090 ft | 465 kts | 37° |
| 2026-05-08 04:44 | 16.83341 | -63.87759 | 35034 ft | 469 kts | 37° |
| 2026-05-08 04:44 | 16.93479 | -63.79376 | 34996 ft | 458 kts | 38° |
| 2026-05-08 04:44 | 17.03364 | -63.71191 | 35011 ft | 451 kts | 38° |
| 2026-05-08 04:45 | 17.23353 | -63.54607 | 35103 ft | 467 kts | 38° |
| 2026-05-08 04:45 | 17.43368 | -63.37950 | 35018 ft | 460 kts | 38° |
| 2026-05-08 04:46 | 17.63066 | -63.21512 | 35078 ft | 452 kts | 38° |
| 2026-05-08 04:46 | 17.82599 | -63.05166 | 35112 ft | 468 kts | 38° |
| 2026-05-08 04:47 | 18.02523 | -62.88440 | 35029 ft | 452 kts | 38° |
| 2026-05-08 04:47 | 18.22136 | -62.71930 | 35105 ft | 459 kts | 38° |
| 2026-05-08 04:48 | 18.42317 | -62.54889 | 35050 ft | 464 kts | 38° |
| 2026-05-08 04:48 | 18.52257 | -62.46476 | 35023 ft | 453 kts | 38° |
| 2026-05-08 04:48 | 18.62020 | -62.38200 | 35031 ft | 448 kts | 38° |
| 2026-05-08 04:49 | 18.81690 | -62.21490 | 35118 ft | 462 kts | 38° |
| 2026-05-08 04:49 | 19.01492 | -62.04612 | 35040 ft | 458 kts | 38° |
| 2026-05-08 04:50 | 19.20975 | -61.87955 | 35061 ft | 447 kts | 38° |
| 2026-05-08 04:50 | 19.40141 | -61.70493 | 35095 ft | 463 kts | 44° |
| 2026-05-08 04:51 | 19.58242 | -61.51335 | 35031 ft | 452 kts | 44° |
| 2026-05-08 04:51 | 19.75789 | -61.32829 | 35092 ft | 448 kts | 44° |
| 2026-05-08 04:52 | 19.93771 | -61.13798 | 35115 ft | 463 kts | 44° |
| 2026-05-08 04:52 | 20.11774 | -60.94676 | 35031 ft | 448 kts | 44° |
| 2026-05-08 04:53 | 20.29296 | -60.76007 | 35104 ft | 450 kts | 44° |
| 2026-05-08 04:53 | 20.47302 | -60.56752 | 35102 ft | 462 kts | 44° |
| 2026-05-08 04:54 | 20.65090 | -60.37663 | 35043 ft | 444 kts | 44° |
| 2026-05-08 04:54 | 20.82570 | -60.18841 | 35124 ft | 453 kts | 44° |
| 2026-05-08 04:55 | 21.00412 | -59.99293 | 35073 ft | 460 kts | 49° |
| 2026-05-08 04:55 | 21.14455 | -59.76945 | 35065 ft | 446 kts | 53° |
| 2026-05-08 04:56 | 21.28478 | -59.54500 | 35136 ft | 462 kts | 54° |
| 2026-05-08 04:56 | 21.42786 | -59.31487 | 35049 ft | 458 kts | 54° |
| 2026-05-08 04:57 | 21.56676 | -59.09062 | 35096 ft | 450 kts | 54° |
| 2026-05-08 04:57 | 21.70816 | -58.86140 | 35130 ft | 467 kts | 54° |
| 2026-05-08 04:58 | 21.85016 | -58.63016 | 35043 ft | 455 kts | 54° |
| 2026-05-08 04:58 | 21.98814 | -58.40461 | 35118 ft | 454 kts | 54° |
| 2026-05-08 04:59 | 22.12840 | -58.17434 | 35108 ft | 469 kts | 54° |
| 2026-05-08 04:59 | 22.26908 | -57.94231 | 35036 ft | 453 kts | 54° |
| 2026-05-08 05:00 | 22.40668 | -57.71448 | 35123 ft | 460 kts | 54° |
| 2026-05-08 05:00 | 22.54834 | -57.47881 | 35084 ft | 467 kts | 55° |
| 2026-05-08 05:01 | 22.68711 | -57.24694 | 35049 ft | 452 kts | 54° |
| 2026-05-08 05:01 | 22.82482 | -57.01590 | 35132 ft | 466 kts | 55° |
| 2026-05-08 05:02 | 22.96621 | -56.77749 | 35067 ft | 466 kts | 55° |
| 2026-05-08 05:02 | 23.10360 | -56.54484 | 35082 ft | 454 kts | 55° |
| 2026-05-08 05:03 | 23.24222 | -56.30905 | 35131 ft | 472 kts | 55° |
| 2026-05-08 05:03 | 23.38227 | -56.06961 | 35044 ft | 462 kts | 55° |
| 2026-05-08 05:04 | 23.51855 | -55.83565 | 35114 ft | 460 kts | 55° |
| 2026-05-08 05:04 | 23.65793 | -55.59519 | 35113 ft | 475 kts | 55° |
| 2026-05-08 05:05 | 23.79689 | -55.35425 | 35039 ft | 461 kts | 55° |
| 2026-05-08 05:05 | 23.93261 | -55.11786 | 35130 ft | 470 kts | 55° |
| 2026-05-08 05:06 | 24.09347 | -54.88897 | 35089 ft | 474 kts | 44° |
| 2026-05-08 05:06 | 24.26939 | -54.67991 | 35054 ft | 459 kts | 44° |
| 2026-05-08 05:07 | 24.44347 | -54.47196 | 35127 ft | 472 kts | 44° |
| 2026-05-08 05:07 | 24.62276 | -54.25671 | 35081 ft | 475 kts | 44° |
| 2026-05-08 05:08 | 24.79813 | -54.04526 | 35058 ft | 464 kts | 44° |
| 2026-05-08 05:08 | 24.97476 | -53.83138 | 35130 ft | 481 kts | 44° |
| 2026-05-08 05:09 | 25.15539 | -53.61150 | 35051 ft | 479 kts | 45° |
| 2026-05-08 05:09 | 25.33061 | -53.39731 | 35099 ft | 476 kts | 45° |
| 2026-05-08 05:10 | 25.42189 | -53.28534 | 35143 ft | 487 kts | 45° |
| 2026-05-08 05:10 | 25.60555 | -53.05912 | 35075 ft | 494 kts | 45° |
| 2026-05-08 05:11 | 25.78665 | -52.83499 | 35066 ft | 485 kts | 45° |
| 2026-05-08 05:11 | 25.96945 | -52.60767 | 35139 ft | 504 kts | 46° |
| 2026-05-08 05:12 | 26.15687 | -52.37331 | 35046 ft | 503 kts | 46° |
| 2026-05-08 05:12 | 26.34070 | -52.14231 | 35102 ft | 500 kts | 46° |
| 2026-05-08 05:12 | 26.43251 | -52.02651 | 35137 ft | 511 kts | 46° |
| 2026-05-08 05:13 | 26.52758 | -51.90624 | 35135 ft | 519 kts | 47° |
| 2026-05-08 05:13 | 26.71785 | -51.66454 | 35041 ft | 508 kts | 47° |
| 2026-05-08 05:14 | 26.90305 | -51.42805 | 35145 ft | 515 kts | 47° |
| 2026-05-08 05:14 | 26.99840 | -51.30579 | 35150 ft | 526 kts | 48° |
| 2026-05-08 05:14 | 27.09493 | -51.18164 | 35102 ft | 527 kts | 48° |
| 2026-05-08 05:15 | 27.28502 | -50.93616 | 35061 ft | 514 kts | 48° |
| 2026-05-08 05:15 | 27.47436 | -50.69025 | 35151 ft | 529 kts | 49° |
| 2026-05-08 05:16 | 27.66787 | -50.43745 | 35063 ft | 528 kts | 49° |
| 2026-05-08 05:16 | 27.85652 | -50.18955 | 35108 ft | 518 kts | 50° |
| 2026-05-08 05:17 | 28.06202 | -49.95745 | 35146 ft | 531 kts | 28° |
| 2026-05-08 05:17 | 28.31602 | -49.79217 | 35058 ft | 517 kts | 29° |
| 2026-05-08 05:18 | 28.56472 | -49.62747 | 35162 ft | 523 kts | 29° |
| 2026-05-08 05:18 | 28.81896 | -49.45822 | 35095 ft | 529 kts | 30° |
| 2026-05-08 05:19 | 29.06694 | -49.29222 | 35086 ft | 514 kts | 30° |
| 2026-05-08 05:19 | 29.31686 | -49.12397 | 35181 ft | 529 kts | 30° |
| 2026-05-08 05:20 | 29.56999 | -48.95256 | 35091 ft | 521 kts | 30° |
| 2026-05-08 05:20 | 29.81700 | -48.78433 | 35137 ft | 516 kts | 30° |
| 2026-05-08 05:21 | 30.06697 | -48.61307 | 35163 ft | 530 kts | 30° |
| 2026-05-08 05:21 | 30.31693 | -48.44080 | 35078 ft | 514 kts | 30° |
| 2026-05-08 05:22 | 30.56275 | -48.27038 | 35182 ft | 522 kts | 30° |
| 2026-05-08 05:22 | 30.81439 | -48.09487 | 35121 ft | 526 kts | 31° |
| 2026-05-08 05:23 | 31.06178 | -47.92125 | 35113 ft | 514 kts | 30° |
| 2026-05-08 05:23 | 31.31034 | -47.74574 | 35190 ft | 531 kts | 30° |
| 2026-05-08 05:24 | 31.56223 | -47.56674 | 35099 ft | 521 kts | 30° |
| 2026-05-08 05:24 | 31.80743 | -47.39142 | 35175 ft | 518 kts | 30° |
| 2026-05-08 05:25 | 32.05551 | -47.21289 | 35163 ft | 529 kts | 30° |
| 2026-05-08 05:25 | 32.30446 | -47.03257 | 35117 ft | 513 kts | 30° |
| 2026-05-08 05:26 | 32.54727 | -46.85560 | 35215 ft | 523 kts | 30° |
| 2026-05-08 05:26 | 32.79539 | -46.67352 | 35143 ft | 518 kts | 30° |
| 2026-05-08 05:27 | 33.03679 | -46.49525 | 35169 ft | 508 kts | 31° |
| 2026-05-08 05:27 | 33.28004 | -46.31442 | 35223 ft | 520 kts | 31° |
| 2026-05-08 05:28 | 33.52090 | -46.13415 | 35142 ft | 500 kts | 31° |
| 2026-05-08 05:28 | 33.75712 | -45.95622 | 35244 ft | 507 kts | 31° |
| 2026-05-08 05:29 | 33.87771 | -45.86493 | 35222 ft | 509 kts | 31° |
| 2026-05-08 05:29 | 33.93690 | -45.81998 | 35201 ft | 500 kts | 31° |
| 2026-05-08 05:30 | 33.99468 | -45.77606 | 35208 ft | 500 kts | 31° |
| 2026-05-08 05:30 | 34.05356 | -45.73123 | 35210 ft | 501 kts | 31° |
| 2026-05-08 05:31 | 34.11252 | -45.68627 | 35211 ft | 501 kts | 31° |
| 2026-05-08 05:31 | 34.16156 | -45.64881 | 35210 ft | 502 kts | 31° |
| 2026-05-08 05:32 | 34.22047 | -45.60373 | 35208 ft | 502 kts | 31° |
| 2026-05-08 05:32 | 34.27940 | -45.55857 | 35213 ft | 501 kts | 31° |
| 2026-05-08 05:33 | 34.33828 | -45.51337 | 35216 ft | 501 kts | 31° |
| 2026-05-08 05:33 | 34.39706 | -45.46816 | 35214 ft | 500 kts | 31° |
| 2026-05-08 05:34 | 34.45575 | -45.42296 | 35214 ft | 500 kts | 31° |
| 2026-05-08 05:34 | 34.51436 | -45.37774 | 35221 ft | 499 kts | 31° |
| 2026-05-08 05:35 | 34.57281 | -45.33256 | 35222 ft | 498 kts | 31° |
| 2026-05-08 05:35 | 34.63127 | -45.28730 | 35222 ft | 498 kts | 31° |
| 2026-05-08 05:36 | 34.68969 | -45.24199 | 35227 ft | 498 kts | 31° |
| 2026-05-08 05:36 | 34.74800 | -45.19670 | 35227 ft | 497 kts | 31° |
| 2026-05-08 05:37 | 34.80588 | -45.15166 | 35231 ft | 497 kts | 31° |
| 2026-05-08 05:37 | 34.86408 | -45.10629 | 35232 ft | 497 kts | 31° |
| 2026-05-08 05:38 | 34.92226 | -45.06084 | 35234 ft | 497 kts | 31° |
| 2026-05-08 05:38 | 34.98046 | -45.01533 | 35238 ft | 496 kts | 31° |
| 2026-05-08 05:39 | 35.03970 | -44.97229 | 35246 ft | 495 kts | 26° |
| 2026-05-08 05:39 | 35.10076 | -44.93374 | 35248 ft | 494 kts | 25° |
| 2026-05-08 05:40 | 35.16208 | -44.89558 | 35240 ft | 494 kts | 25° |
| 2026-05-08 05:40 | 35.22308 | -44.85684 | 35243 ft | 494 kts | 25° |
| 2026-05-08 05:41 | 35.28386 | -44.81771 | 35248 ft | 494 kts | 26° |
| 2026-05-08 05:41 | 35.34455 | -44.77843 | 35239 ft | 493 kts | 26° |
| 2026-05-08 05:42 | 35.40519 | -44.73916 | 35254 ft | 492 kts | 25° |
| 2026-05-08 05:42 | 35.46573 | -44.69991 | 35260 ft | 492 kts | 25° |
| 2026-05-08 05:43 | 35.52630 | -44.66058 | 35249 ft | 492 kts | 25° |
| 2026-05-08 05:43 | 35.58670 | -44.62130 | 35255 ft | 491 kts | 25° |
| 2026-05-08 05:44 | 35.64716 | -44.58191 | 35251 ft | 491 kts | 25° |
| 2026-05-08 05:44 | 35.70718 | -44.54274 | 35263 ft | 491 kts | 25° |
| 2026-05-08 05:45 | 35.76758 | -44.50326 | 35253 ft | 492 kts | 25° |
| 2026-05-08 05:45 | 35.82798 | -44.46371 | 35264 ft | 492 kts | 25° |
| 2026-05-08 05:46 | 35.88834 | -44.42410 | 35264 ft | 492 kts | 25° |
| 2026-05-08 05:46 | 35.94876 | -44.38440 | 35265 ft | 491 kts | 25° |
| 2026-05-08 05:47 | 36.00904 | -44.34472 | 35267 ft | 491 kts | 25° |
| 2026-05-08 05:47 | 36.06927 | -44.30499 | 35267 ft | 490 kts | 25° |
| 2026-05-08 05:48 | 36.12945 | -44.26524 | 35273 ft | 490 kts | 25° |
| 2026-05-08 05:48 | 36.18952 | -44.22549 | 35274 ft | 490 kts | 25° |
| 2026-05-08 05:49 | 36.24955 | -44.18569 | 35271 ft | 490 kts | 25° |
| 2026-05-08 05:49 | 36.30959 | -44.14582 | 35274 ft | 490 kts | 25° |
| 2026-05-08 05:50 | 36.36963 | -44.10588 | 35281 ft | 490 kts | 25° |
| 2026-05-08 05:50 | 36.42970 | -44.06585 | 35277 ft | 490 kts | 25° |
| 2026-05-08 05:51 | 36.48976 | -44.02576 | 35277 ft | 490 kts | 25° |
| 2026-05-08 05:51 | 36.54975 | -43.98563 | 35280 ft | 490 kts | 25° |
| 2026-05-08 05:52 | 36.60983 | -43.94538 | 35285 ft | 490 kts | 25° |
| 2026-05-08 05:52 | 36.66980 | -43.90512 | 35284 ft | 490 kts | 25° |
| 2026-05-08 05:53 | 36.72946 | -43.86501 | 35277 ft | 490 kts | 25° |
| 2026-05-08 05:53 | 36.78942 | -43.82462 | 35280 ft | 490 kts | 25° |
| 2026-05-08 05:54 | 36.84938 | -43.78416 | 35280 ft | 490 kts | 25° |
| 2026-05-08 05:54 | 36.90942 | -43.74357 | 35283 ft | 490 kts | 25° |
| 2026-05-08 05:55 | 36.96946 | -43.70291 | 35284 ft | 491 kts | 25° |
| 2026-05-08 05:55 | 37.02951 | -43.66218 | 35285 ft | 492 kts | 25° |
| 2026-05-08 05:56 | 37.08970 | -43.62127 | 35284 ft | 492 kts | 25° |
| 2026-05-08 05:56 | 37.14987 | -43.58029 | 35290 ft | 493 kts | 25° |
| 2026-05-08 05:57 | 37.21014 | -43.53918 | 35290 ft | 493 kts | 25° |
| 2026-05-08 05:57 | 37.27036 | -43.49802 | 35290 ft | 493 kts | 25° |
| 2026-05-08 05:58 | 37.33059 | -43.45678 | 35290 ft | 493 kts | 25° |
| 2026-05-08 05:58 | 37.39072 | -43.41553 | 35293 ft | 492 kts | 25° |
| 2026-05-08 05:59 | 37.45040 | -43.37451 | 35293 ft | 491 kts | 25° |
| 2026-05-08 05:59 | 37.51064 | -43.33303 | 35289 ft | 490 kts | 25° |
| 2026-05-08 06:00 | 37.56993 | -43.29214 | 35295 ft | 489 kts | 25° |
| 2026-05-08 06:00 | 37.62951 | -43.25097 | 35294 ft | 488 kts | 25° |
| 2026-05-08 06:01 | 37.68899 | -43.20980 | 35303 ft | 487 kts | 25° |
| 2026-05-08 06:01 | 37.74846 | -43.16856 | 35304 ft | 487 kts | 25° |
| 2026-05-08 06:02 | 37.80790 | -43.12725 | 35298 ft | 487 kts | 25° |
| 2026-05-08 06:02 | 37.86728 | -43.08592 | 35307 ft | 487 kts | 25° |
| 2026-05-08 06:03 | 37.92669 | -43.04448 | 35311 ft | 488 kts | 25° |
| 2026-05-08 06:03 | 37.98611 | -43.00297 | 35308 ft | 488 kts | 25° |
| 2026-05-08 06:04 | 38.04558 | -42.96134 | 35312 ft | 488 kts | 25° |
| 2026-05-08 06:04 | 38.10497 | -42.91969 | 35310 ft | 488 kts | 25° |
| 2026-05-08 06:05 | 38.16429 | -42.87800 | 35308 ft | 487 kts | 25° |
| 2026-05-08 06:05 | 38.22321 | -42.83653 | 35349 ft | 488 kts | 25° |
| 2026-05-08 06:05 | 38.25333 | -42.81530 | 35628 ft | 488 kts | 25° |
| 2026-05-08 06:06 | 38.28253 | -42.79468 | 36025 ft | 485 kts | 25° |
| 2026-05-08 06:06 | 38.31195 | -42.77389 | 36434 ft | 482 kts | 25° |
| 2026-05-08 06:06 | 38.34119 | -42.75320 | 36803 ft | 480 kts | 25° |
| 2026-05-08 06:06 | 38.37032 | -42.73259 | 37109 ft | 479 kts | 25° |
| 2026-05-08 06:07 | 38.39948 | -42.71195 | 37251 ft | 480 kts | 25° |
| 2026-05-08 06:07 | 38.45801 | -42.67046 | 37312 ft | 481 kts | 25° |
| 2026-05-08 06:08 | 38.51622 | -42.62909 | 37314 ft | 477 kts | 25° |
| 2026-05-08 06:08 | 38.57410 | -42.58787 | 37320 ft | 475 kts | 25° |
| 2026-05-08 06:09 | 38.63167 | -42.54681 | 37321 ft | 474 kts | 25° |
| 2026-05-08 06:09 | 38.68917 | -42.50573 | 37324 ft | 473 kts | 25° |
| 2026-05-08 06:10 | 38.74672 | -42.46454 | 37325 ft | 474 kts | 25° |
| 2026-05-08 06:10 | 38.80429 | -42.42326 | 37321 ft | 474 kts | 25° |
| 2026-05-08 06:11 | 38.86197 | -42.38182 | 37327 ft | 475 kts | 25° |
| 2026-05-08 06:11 | 38.91970 | -42.34025 | 37323 ft | 476 kts | 25° |
| 2026-05-08 06:12 | 38.97739 | -42.29864 | 37329 ft | 476 kts | 25° |
| 2026-05-08 06:12 | 39.03511 | -42.25693 | 37325 ft | 476 kts | 25° |
| 2026-05-08 06:13 | 39.09245 | -42.21541 | 37327 ft | 476 kts | 25° |
| 2026-05-08 06:13 | 39.15048 | -42.17332 | 37326 ft | 475 kts | 25° |
| 2026-05-08 06:14 | 39.20769 | -42.13174 | 37329 ft | 475 kts | 25° |
| 2026-05-08 06:14 | 39.26516 | -42.08989 | 37330 ft | 474 kts | 25° |
| 2026-05-08 06:15 | 39.32258 | -42.04800 | 37329 ft | 474 kts | 25° |
| 2026-05-08 06:15 | 39.37990 | -42.00611 | 37331 ft | 474 kts | 25° |
| 2026-05-08 06:16 | 39.43606 | -41.96499 | 37329 ft | 473 kts | 25° |
| 2026-05-08 06:16 | 39.49336 | -41.92295 | 37334 ft | 474 kts | 25° |
| 2026-05-08 06:17 | 39.57937 | -41.85970 | 37335 ft | 474 kts | 25° |
| 2026-05-08 06:17 | 39.63669 | -41.81744 | 37336 ft | 474 kts | 25° |
| 2026-05-08 06:18 | 39.69408 | -41.77506 | 37333 ft | 474 kts | 25° |
| 2026-05-08 06:18 | 39.75144 | -41.73261 | 37337 ft | 475 kts | 25° |
| 2026-05-08 06:19 | 39.80885 | -41.69004 | 37335 ft | 475 kts | 25° |
| 2026-05-08 06:19 | 39.86613 | -41.64748 | 37336 ft | 474 kts | 25° |
| 2026-05-08 06:20 | 39.91376 | -41.61204 | 37335 ft | 474 kts | 25° |
| 2026-05-08 06:20 | 39.97097 | -41.56938 | 37332 ft | 473 kts | 25° |
| 2026-05-08 06:21 | 40.02809 | -41.52671 | 37331 ft | 473 kts | 25° |
| 2026-05-08 06:21 | 40.08511 | -41.48403 | 37333 ft | 472 kts | 25° |
| 2026-05-08 06:22 | 40.14199 | -41.44137 | 37332 ft | 471 kts | 25° |
| 2026-05-08 06:22 | 40.19880 | -41.39869 | 37330 ft | 470 kts | 25° |
| 2026-05-08 06:23 | 40.25548 | -41.35602 | 37333 ft | 470 kts | 25° |
| 2026-05-08 06:23 | 40.31215 | -41.31327 | 37332 ft | 470 kts | 25° |
| 2026-05-08 06:24 | 40.36881 | -41.27045 | 37330 ft | 470 kts | 25° |
| 2026-05-08 06:24 | 40.42546 | -41.22755 | 37341 ft | 470 kts | 25° |
| 2026-05-08 06:25 | 40.48211 | -41.18457 | 37344 ft | 470 kts | 25° |
| 2026-05-08 06:25 | 40.53838 | -41.14179 | 37335 ft | 470 kts | 25° |
| 2026-05-08 06:26 | 40.59533 | -41.09840 | 37337 ft | 470 kts | 26° |
| 2026-05-08 06:26 | 40.65159 | -41.05546 | 37336 ft | 470 kts | 25° |
| 2026-05-08 06:27 | 40.70814 | -41.01221 | 37333 ft | 470 kts | 25° |
| 2026-05-08 06:27 | 40.76460 | -40.96894 | 37336 ft | 469 kts | 25° |
| 2026-05-08 06:28 | 40.82093 | -40.92569 | 37334 ft | 468 kts | 25° |
| 2026-05-08 06:28 | 40.87723 | -40.88238 | 37336 ft | 468 kts | 25° |
| 2026-05-08 06:29 | 40.93340 | -40.83907 | 37329 ft | 467 kts | 25° |
| 2026-05-08 06:29 | 40.98955 | -40.79570 | 37333 ft | 467 kts | 25° |
| 2026-05-08 06:30 | 41.04563 | -40.75230 | 37330 ft | 467 kts | 25° |
| 2026-05-08 06:30 | 41.10170 | -40.70882 | 37333 ft | 467 kts | 25° |
| 2026-05-08 06:31 | 41.15781 | -40.66522 | 37337 ft | 468 kts | 25° |
| 2026-05-08 06:31 | 41.21397 | -40.62150 | 37335 ft | 468 kts | 25° |
| 2026-05-08 06:32 | 41.27011 | -40.57770 | 37332 ft | 469 kts | 26° |
| 2026-05-08 06:32 | 41.32644 | -40.53366 | 37338 ft | 469 kts | 26° |
| 2026-05-08 06:33 | 41.38270 | -40.48959 | 37336 ft | 469 kts | 26° |
| 2026-05-08 06:33 | 41.43869 | -40.44564 | 37336 ft | 469 kts | 26° |
| 2026-05-08 06:34 | 41.49488 | -40.40144 | 37331 ft | 469 kts | 26° |
| 2026-05-08 06:34 | 41.55106 | -40.35715 | 37336 ft | 468 kts | 26° |
| 2026-05-08 06:35 | 41.60704 | -40.31295 | 37317 ft | 467 kts | 26° |
| 2026-05-08 06:35 | 41.66289 | -40.26875 | 37319 ft | 466 kts | 26° |
| 2026-05-08 06:36 | 41.71863 | -40.22454 | 37324 ft | 465 kts | 26° |
| 2026-05-08 06:36 | 41.77431 | -40.18030 | 37328 ft | 465 kts | 26° |
| 2026-05-08 06:37 | 41.82990 | -40.13604 | 37329 ft | 464 kts | 26° |
| 2026-05-08 06:37 | 41.88536 | -40.09178 | 37327 ft | 464 kts | 26° |
| 2026-05-08 06:38 | 41.94084 | -40.04742 | 37329 ft | 464 kts | 26° |
| 2026-05-08 06:38 | 41.99524 | -40.00076 | 37324 ft | 467 kts | 33° |
| 2026-05-08 06:39 | 42.04318 | -39.94103 | 37328 ft | 472 kts | 42° |
| 2026-05-08 06:39 | 42.08815 | -39.87667 | 37325 ft | 472 kts | 42° |
| 2026-05-08 06:40 | 42.13332 | -39.81232 | 37323 ft | 473 kts | 42° |
| 2026-05-08 06:40 | 42.17868 | -39.74797 | 37317 ft | 473 kts | 42° |
| 2026-05-08 06:41 | 42.22405 | -39.68362 | 37326 ft | 474 kts | 42° |
| 2026-05-08 06:41 | 42.26929 | -39.61934 | 37328 ft | 475 kts | 42° |
| 2026-05-08 06:42 | 42.31505 | -39.55416 | 37324 ft | 475 kts | 42° |
| 2026-05-08 06:42 | 42.36056 | -39.48919 | 37320 ft | 476 kts | 42° |
| 2026-05-08 06:43 | 42.40608 | -39.42405 | 37320 ft | 477 kts | 42° |
| 2026-05-08 06:43 | 42.45126 | -39.35923 | 37317 ft | 477 kts | 42° |
| 2026-05-08 06:44 | 42.49671 | -39.29389 | 37318 ft | 476 kts | 43° |
| 2026-05-08 06:44 | 42.54206 | -39.22855 | 37315 ft | 476 kts | 43° |
| 2026-05-08 06:45 | 42.58733 | -39.16318 | 37316 ft | 475 kts | 43° |
| 2026-05-08 06:45 | 42.63249 | -39.09781 | 37316 ft | 474 kts | 43° |
| 2026-05-08 06:46 | 42.67754 | -39.03247 | 37314 ft | 473 kts | 43° |
| 2026-05-08 06:46 | 42.72245 | -38.96717 | 37312 ft | 472 kts | 43° |
| 2026-05-08 06:47 | 42.76724 | -38.90190 | 37314 ft | 472 kts | 44° |
| 2026-05-08 06:47 | 42.81205 | -38.83645 | 37315 ft | 472 kts | 44° |
| 2026-05-08 06:48 | 42.85677 | -38.77100 | 37314 ft | 472 kts | 44° |
| 2026-05-08 06:48 | 42.90140 | -38.70550 | 37314 ft | 471 kts | 45° |
| 2026-05-08 06:49 | 42.94575 | -38.64028 | 37315 ft | 471 kts | 45° |
| 2026-05-08 06:49 | 42.99028 | -38.57465 | 37317 ft | 471 kts | 45° |
| 2026-05-08 06:50 | 43.03468 | -38.50904 | 37321 ft | 471 kts | 45° |
| 2026-05-08 06:50 | 43.07539 | -38.44876 | 37314 ft | 471 kts | 46° |
| 2026-05-08 06:51 | 43.11981 | -38.38285 | 37313 ft | 471 kts | 46° |
| 2026-05-08 06:51 | 43.16419 | -38.31684 | 37314 ft | 471 kts | 46° |
| 2026-05-08 06:52 | 43.20844 | -38.25087 | 37311 ft | 470 kts | 46° |
| 2026-05-08 06:52 | 43.25270 | -38.18475 | 37314 ft | 470 kts | 46° |
| 2026-05-08 06:53 | 43.29676 | -38.11875 | 37312 ft | 469 kts | 46° |
| 2026-05-08 06:53 | 43.34076 | -38.05270 | 37314 ft | 468 kts | 46° |
| 2026-05-08 06:54 | 43.38460 | -37.98674 | 37316 ft | 467 kts | 47° |
| 2026-05-08 06:54 | 43.42837 | -37.92073 | 37315 ft | 466 kts | 47° |
| 2026-05-08 06:55 | 43.47194 | -37.85487 | 37317 ft | 465 kts | 47° |
| 2026-05-08 06:55 | 43.51536 | -37.78909 | 37315 ft | 464 kts | 47° |
| 2026-05-08 06:56 | 43.55866 | -37.72333 | 37314 ft | 463 kts | 47° |
| 2026-05-08 06:56 | 43.60184 | -37.65761 | 37316 ft | 462 kts | 47° |
| 2026-05-08 06:57 | 43.64493 | -37.59187 | 37313 ft | 462 kts | 47° |
| 2026-05-08 06:57 | 43.68796 | -37.52608 | 37313 ft | 461 kts | 47° |
| 2026-05-08 06:58 | 43.73093 | -37.46022 | 37314 ft | 461 kts | 47° |
| 2026-05-08 06:58 | 43.77358 | -37.39471 | 37315 ft | 461 kts | 47° |
| 2026-05-08 06:59 | 43.81649 | -37.32864 | 37317 ft | 462 kts | 47° |
| 2026-05-08 06:59 | 43.85922 | -37.26269 | 37318 ft | 462 kts | 47° |
| 2026-05-08 07:00 | 43.90211 | -37.19634 | 37317 ft | 462 kts | 47° |
| 2026-05-08 07:00 | 43.94502 | -37.12982 | 37315 ft | 463 kts | 47° |
| 2026-05-08 07:01 | 43.98784 | -37.06326 | 37310 ft | 463 kts | 47° |
| 2026-05-08 07:01 | 44.03072 | -36.99646 | 37311 ft | 463 kts | 47° |
| 2026-05-08 07:02 | 44.07350 | -36.92966 | 37317 ft | 463 kts | 46° |
| 2026-05-08 07:02 | 44.11626 | -36.86273 | 37314 ft | 463 kts | 46° |
| 2026-05-08 07:03 | 44.15891 | -36.79581 | 37310 ft | 463 kts | 46° |
| 2026-05-08 07:03 | 44.20159 | -36.72871 | 37311 ft | 462 kts | 46° |
| 2026-05-08 07:04 | 44.24419 | -36.66154 | 37309 ft | 462 kts | 46° |
| 2026-05-08 07:04 | 44.28676 | -36.59429 | 37311 ft | 462 kts | 46° |
| 2026-05-08 07:05 | 44.32928 | -36.52694 | 37311 ft | 462 kts | 46° |
| 2026-05-08 07:05 | 44.37172 | -36.45957 | 37306 ft | 462 kts | 46° |
| 2026-05-08 07:06 | 44.41409 | -36.39214 | 37309 ft | 462 kts | 46° |
| 2026-05-08 07:06 | 44.44930 | -36.33599 | 37316 ft | 461 kts | 46° |
| 2026-05-08 07:07 | 44.49160 | -36.26836 | 37315 ft | 461 kts | 46° |
| 2026-05-08 07:07 | 44.53382 | -36.20072 | 37300 ft | 461 kts | 46° |
| 2026-05-08 07:08 | 44.57600 | -36.13298 | 37298 ft | 461 kts | 46° |
| 2026-05-08 07:08 | 44.61814 | -36.06515 | 37304 ft | 461 kts | 46° |
| 2026-05-08 07:09 | 44.66014 | -35.99736 | 37307 ft | 460 kts | 46° |
| 2026-05-08 07:09 | 44.70219 | -35.92934 | 37306 ft | 460 kts | 46° |
| 2026-05-08 07:10 | 44.74407 | -35.86142 | 37314 ft | 460 kts | 46° |
| 2026-05-08 07:10 | 44.78592 | -35.79339 | 37306 ft | 459 kts | 45° |
| 2026-05-08 07:11 | 44.82765 | -35.72540 | 37304 ft | 459 kts | 45° |
| 2026-05-08 07:11 | 44.86932 | -35.65734 | 37298 ft | 458 kts | 45° |
| 2026-05-08 07:12 | 44.91095 | -35.58918 | 37302 ft | 458 kts | 45° |
| 2026-05-08 07:12 | 44.95219 | -35.52150 | 37305 ft | 457 kts | 45° |
| 2026-05-08 07:13 | 44.99358 | -35.45339 | 37303 ft | 457 kts | 45° |
| 2026-05-08 07:13 | 45.03495 | -35.38516 | 37296 ft | 456 kts | 45° |
| 2026-05-08 07:14 | 45.07572 | -35.31776 | 37300 ft | 456 kts | 45° |
| 2026-05-08 07:14 | 45.11688 | -35.24955 | 37300 ft | 455 kts | 45° |
| 2026-05-08 07:15 | 45.15797 | -35.18129 | 37293 ft | 455 kts | 45° |
| 2026-05-08 07:15 | 45.19897 | -35.11301 | 37297 ft | 454 kts | 45° |
| 2026-05-08 07:16 | 45.23990 | -35.04469 | 37297 ft | 454 kts | 45° |
| 2026-05-08 07:16 | 45.28073 | -34.97636 | 37297 ft | 453 kts | 45° |
| 2026-05-08 07:17 | 45.32147 | -34.90803 | 37296 ft | 453 kts | 44° |
| 2026-05-08 07:17 | 45.36211 | -34.83968 | 37293 ft | 452 kts | 44° |
| 2026-05-08 07:18 | 45.40266 | -34.77132 | 37303 ft | 452 kts | 44° |
| 2026-05-08 07:18 | 45.44314 | -34.70293 | 37304 ft | 451 kts | 44° |
| 2026-05-08 07:19 | 45.48327 | -34.63494 | 37288 ft | 451 kts | 44° |
| 2026-05-08 07:19 | 45.52355 | -34.56656 | 37295 ft | 450 kts | 44° |
| 2026-05-08 07:20 | 45.56378 | -34.49807 | 37294 ft | 450 kts | 44° |
| 2026-05-08 07:20 | 45.60395 | -34.42953 | 37296 ft | 450 kts | 44° |
| 2026-05-08 07:21 | 45.64399 | -34.36103 | 37294 ft | 449 kts | 44° |
| 2026-05-08 07:21 | 45.68403 | -34.29236 | 37294 ft | 449 kts | 44° |
| 2026-05-08 07:22 | 45.72392 | -34.22380 | 37295 ft | 448 kts | 44° |
| 2026-05-08 07:22 | 45.76378 | -34.15510 | 37291 ft | 448 kts | 44° |
| 2026-05-08 07:23 | 45.80354 | -34.08643 | 37289 ft | 448 kts | 43° |
| 2026-05-08 07:23 | 45.84320 | -34.01775 | 37289 ft | 447 kts | 43° |
| 2026-05-08 07:24 | 45.88281 | -33.94898 | 37286 ft | 447 kts | 43° |
| 2026-05-08 07:24 | 45.92237 | -33.88014 | 37290 ft | 447 kts | 43° |
| 2026-05-08 07:25 | 45.96183 | -33.81129 | 37292 ft | 446 kts | 43° |
| 2026-05-08 07:26 | 46.02066 | -33.70834 | 37288 ft | 446 kts | 43° |
| 2026-05-08 07:26 | 46.05998 | -33.63931 | 37288 ft | 445 kts | 43° |
| 2026-05-08 07:27 | 46.09918 | -33.57033 | 37286 ft | 445 kts | 43° |
| 2026-05-08 07:27 | 46.13833 | -33.50127 | 37291 ft | 444 kts | 43° |
| 2026-05-08 07:28 | 46.17734 | -33.43227 | 37287 ft | 444 kts | 43° |
| 2026-05-08 07:28 | 46.21593 | -33.36385 | 37291 ft | 444 kts | 43° |
| 2026-05-08 07:29 | 46.25485 | -33.29469 | 37293 ft | 443 kts | 43° |
| 2026-05-08 07:29 | 46.29368 | -33.22551 | 37290 ft | 443 kts | 43° |
| 2026-05-08 07:30 | 46.33242 | -33.15631 | 37294 ft | 443 kts | 43° |
| 2026-05-08 07:30 | 46.37100 | -33.08723 | 37274 ft | 443 kts | 42° |
| 2026-05-08 07:31 | 46.40968 | -33.01779 | 37280 ft | 443 kts | 42° |
| 2026-05-08 07:31 | 46.44827 | -32.94835 | 37286 ft | 443 kts | 42° |
| 2026-05-08 07:32 | 46.48688 | -32.87870 | 37293 ft | 443 kts | 42° |
| 2026-05-08 07:32 | 46.52467 | -32.81035 | 37291 ft | 443 kts | 42° |
| 2026-05-08 07:33 | 46.56320 | -32.74050 | 37287 ft | 443 kts | 42° |
| 2026-05-08 07:33 | 46.60168 | -32.67054 | 37287 ft | 443 kts | 42° |
| 2026-05-08 07:34 | 46.63986 | -32.60097 | 37286 ft | 443 kts | 42° |
| 2026-05-08 07:34 | 46.67816 | -32.53099 | 37286 ft | 443 kts | 42° |
| 2026-05-08 07:35 | 46.71607 | -32.46156 | 37285 ft | 442 kts | 42° |
| 2026-05-08 07:35 | 46.74187 | -32.41420 | 37284 ft | 442 kts | 42° |
| 2026-05-08 07:36 | 46.76482 | -32.37200 | 37286 ft | 442 kts | 42° |
| 2026-05-08 07:36 | 46.80165 | -32.30415 | 37285 ft | 442 kts | 42° |
| 2026-05-08 07:37 | 46.83334 | -32.24565 | 37289 ft | 441 kts | 42° |
| 2026-05-08 07:37 | 46.86738 | -32.18267 | 37289 ft | 441 kts | 42° |
| 2026-05-08 07:38 | 46.90542 | -32.11211 | 37274 ft | 441 kts | 42° |
| 2026-05-08 07:38 | 46.94310 | -32.04204 | 37277 ft | 441 kts | 42° |
| 2026-05-08 07:39 | 46.98116 | -31.97108 | 37289 ft | 440 kts | 42° |
| 2026-05-08 07:39 | 47.01895 | -31.90046 | 37284 ft | 440 kts | 42° |
| 2026-05-08 07:40 | 47.13497 | -31.68247 | 37295 ft | 441 kts | 42° |
| 2026-05-08 07:40 | 47.28541 | -31.39720 | 37288 ft | 442 kts | 42° |
| 2026-05-08 07:41 | 47.43570 | -31.10923 | 37285 ft | 443 kts | 42° |
| 2026-05-08 07:41 | 47.58546 | -30.81924 | 37268 ft | 444 kts | 43° |
| 2026-05-08 07:42 | 47.73506 | -30.52643 | 37282 ft | 446 kts | 43° |
| 2026-05-08 07:42 | 47.88439 | -30.23100 | 37285 ft | 447 kts | 44° |
| 2026-05-08 07:43 | 48.02170 | -29.91764 | 37253 ft | 470 kts | 60° |
| 2026-05-08 07:43 | 48.11228 | -29.55102 | 37268 ft | 471 kts | 60° |
| 2026-05-08 07:44 | 48.20285 | -29.18251 | 37260 ft | 471 kts | 62° |
| 2026-05-08 07:44 | 48.29225 | -28.81251 | 37241 ft | 471 kts | 62° |
| 2026-05-08 07:45 | 48.38032 | -28.44186 | 37244 ft | 471 kts | 63° |
| 2026-05-08 07:45 | 48.46710 | -28.07032 | 37233 ft | 471 kts | 63° |
| 2026-05-08 07:46 | 48.55246 | -27.69850 | 37224 ft | 472 kts | 63° |
| 2026-05-08 07:46 | 48.58774 | -27.54289 | 37221 ft | 472 kts | 63° |
| 2026-05-08 07:47 | 48.60602 | -27.46180 | 37214 ft | 472 kts | 63° |
| 2026-05-08 07:47 | 48.62376 | -27.38282 | 37199 ft | 473 kts | 64° |
| 2026-05-08 07:48 | 48.64487 | -27.28848 | 37203 ft | 473 kts | 64° |
| 2026-05-08 07:48 | 48.66531 | -27.19669 | 37202 ft | 473 kts | 64° |
| 2026-05-08 07:49 | 48.68431 | -27.11102 | 37200 ft | 474 kts | 64° |
| 2026-05-08 07:49 | 48.70507 | -27.01703 | 37201 ft | 475 kts | 64° |
| 2026-05-08 07:50 | 48.72554 | -26.92389 | 37195 ft | 475 kts | 64° |
| 2026-05-08 07:50 | 48.73931 | -26.86102 | 37187 ft | 475 kts | 64° |
| 2026-05-08 07:51 | 48.76245 | -26.75493 | 37189 ft | 476 kts | 64° |
| 2026-05-08 07:51 | 48.78313 | -26.65964 | 37191 ft | 476 kts | 64° |
| 2026-05-08 07:52 | 48.80131 | -26.57553 | 37191 ft | 476 kts | 65° |
| 2026-05-08 07:52 | 48.81991 | -26.48912 | 37184 ft | 476 kts | 65° |
| 2026-05-08 07:53 | 48.84039 | -26.39353 | 37179 ft | 476 kts | 65° |
| 2026-05-08 07:53 | 48.85846 | -26.30881 | 37182 ft | 477 kts | 65° |
| 2026-05-08 07:54 | 48.87200 | -26.24511 | 37179 ft | 477 kts | 65° |
| 2026-05-08 07:54 | 48.89340 | -26.14398 | 37175 ft | 477 kts | 65° |
| 2026-05-08 07:55 | 48.91364 | -26.04795 | 37171 ft | 477 kts | 66° |
| 2026-05-08 07:55 | 48.92634 | -25.98745 | 37167 ft | 477 kts | 66° |
| 2026-05-08 07:56 | 48.94468 | -25.89969 | 37169 ft | 477 kts | 66° |
| 2026-05-08 07:56 | 48.96270 | -25.81313 | 37167 ft | 478 kts | 66° |
| 2026-05-08 07:57 | 48.97848 | -25.73700 | 37164 ft | 478 kts | 66° |
| 2026-05-08 07:57 | 48.99743 | -25.64519 | 37163 ft | 478 kts | 66° |
| 2026-05-08 07:58 | 49.01656 | -25.55212 | 37157 ft | 478 kts | 67° |
| 2026-05-08 07:58 | 49.03636 | -25.45529 | 37156 ft | 479 kts | 67° |
| 2026-05-08 07:59 | 49.05608 | -25.35843 | 37163 ft | 479 kts | 67° |
| 2026-05-08 07:59 | 49.07575 | -25.26129 | 37147 ft | 479 kts | 68° |
| 2026-05-08 08:00 | 49.09532 | -25.16417 | 37147 ft | 479 kts | 68° |
| 2026-05-08 08:00 | 49.11485 | -25.06677 | 37154 ft | 480 kts | 68° |
| 2026-05-08 08:01 | 49.13430 | -24.96929 | 37145 ft | 480 kts | 68° |
| 2026-05-08 08:01 | 49.15369 | -24.87163 | 37137 ft | 481 kts | 68° |
| 2026-05-08 08:02 | 49.17299 | -24.77392 | 37133 ft | 481 kts | 69° |
| 2026-05-08 08:02 | 49.19224 | -24.67597 | 37136 ft | 481 kts | 69° |
| 2026-05-08 08:03 | 49.21134 | -24.57828 | 37140 ft | 481 kts | 69° |
| 2026-05-08 08:03 | 49.23051 | -24.47976 | 37133 ft | 482 kts | 69° |
| 2026-05-08 08:04 | 49.24954 | -24.38137 | 37126 ft | 482 kts | 69° |
| 2026-05-08 08:04 | 49.26850 | -24.28292 | 37121 ft | 482 kts | 69° |
| 2026-05-08 08:05 | 49.28737 | -24.18438 | 37118 ft | 482 kts | 69° |
| 2026-05-08 08:05 | 49.30617 | -24.08573 | 37120 ft | 483 kts | 69° |
| 2026-05-08 08:06 | 49.32489 | -23.98694 | 37113 ft | 483 kts | 70° |
| 2026-05-08 08:06 | 49.34353 | -23.88804 | 37113 ft | 483 kts | 70° |
| 2026-05-08 08:07 | 49.36211 | -23.78900 | 37109 ft | 483 kts | 70° |
| 2026-05-08 08:07 | 49.38049 | -23.69044 | 37101 ft | 483 kts | 70° |
| 2026-05-08 08:08 | 49.39889 | -23.59116 | 37102 ft | 484 kts | 70° |
| 2026-05-08 08:08 | 49.41723 | -23.49193 | 37097 ft | 484 kts | 70° |
| 2026-05-08 08:09 | 49.43552 | -23.39239 | 37098 ft | 484 kts | 70° |
| 2026-05-08 08:09 | 49.45371 | -23.29275 | 37084 ft | 484 kts | 70° |
| 2026-05-08 08:10 | 49.47177 | -23.19309 | 37096 ft | 485 kts | 70° |
| 2026-05-08 08:10 | 49.48984 | -23.09301 | 37079 ft | 485 kts | 71° |
| 2026-05-08 08:11 | 49.50784 | -22.99299 | 37076 ft | 486 kts | 71° |
| 2026-05-08 08:11 | 49.52577 | -22.89261 | 37094 ft | 487 kts | 70° |
| 2026-05-08 08:12 | 49.54364 | -22.79203 | 37066 ft | 488 kts | 71° |
| 2026-05-08 08:12 | 49.56146 | -22.69117 | 37072 ft | 488 kts | 71° |
| 2026-05-08 08:13 | 49.57921 | -22.59000 | 37067 ft | 489 kts | 72° |
| 2026-05-08 08:13 | 49.59689 | -22.48867 | 37060 ft | 490 kts | 72° |
| 2026-05-08 08:14 | 49.61442 | -22.38762 | 37060 ft | 491 kts | 72° |
| 2026-05-08 08:14 | 49.63200 | -22.28576 | 37056 ft | 491 kts | 72° |
| 2026-05-08 08:15 | 49.64951 | -22.18389 | 37047 ft | 491 kts | 73° |
| 2026-05-08 08:15 | 49.66689 | -22.08208 | 37044 ft | 491 kts | 72° |
| 2026-05-08 08:16 | 49.68418 | -21.97996 | 37043 ft | 491 kts | 73° |
| 2026-05-08 08:16 | 49.70138 | -21.87801 | 37038 ft | 491 kts | 73° |
| 2026-05-08 08:17 | 49.71849 | -21.77591 | 37031 ft | 492 kts | 73° |
| 2026-05-08 08:17 | 49.73560 | -21.67341 | 37030 ft | 493 kts | 73° |
| 2026-05-08 08:18 | 49.75261 | -21.57061 | 37021 ft | 494 kts | 74° |
| 2026-05-08 08:18 | 49.76956 | -21.46750 | 37019 ft | 495 kts | 74° |
| 2026-05-08 08:19 | 49.78648 | -21.36413 | 37012 ft | 496 kts | 74° |
| 2026-05-08 08:19 | 49.80323 | -21.26111 | 37002 ft | 497 kts | 74° |
| 2026-05-08 08:20 | 49.81998 | -21.15755 | 37002 ft | 496 kts | 75° |
| 2026-05-08 08:20 | 49.83666 | -21.05363 | 36983 ft | 497 kts | 75° |
| 2026-05-08 08:21 | 49.85323 | -20.94982 | 36988 ft | 497 kts | 75° |
| 2026-05-08 08:21 | 49.86975 | -20.84566 | 36984 ft | 497 kts | 75° |
| 2026-05-08 08:22 | 49.88617 | -20.74148 | 36975 ft | 498 kts | 75° |
| 2026-05-08 08:22 | 49.90254 | -20.63690 | 36976 ft | 499 kts | 75° |
| 2026-05-08 08:23 | 49.91882 | -20.53227 | 36971 ft | 499 kts | 76° |
| 2026-05-08 08:23 | 49.93500 | -20.42763 | 36971 ft | 499 kts | 76° |
| 2026-05-08 08:24 | 49.95110 | -20.32278 | 36972 ft | 499 kts | 76° |
| 2026-05-08 08:24 | 49.96709 | -20.21794 | 36975 ft | 499 kts | 76° |
| 2026-05-08 08:25 | 49.98301 | -20.11298 | 36961 ft | 499 kts | 76° |
| 2026-05-08 08:25 | 49.99807 | -20.00765 | 36960 ft | 499 kts | 81° |
| 2026-05-08 08:26 | 50.00305 | -19.90024 | 36972 ft | 499 kts | 89° |
| 2026-05-08 08:26 | 50.00456 | -19.79244 | 36966 ft | 499 kts | 89° |
| 2026-05-08 08:27 | 50.00630 | -19.68439 | 36971 ft | 500 kts | 89° |
| 2026-05-08 08:27 | 50.00821 | -19.57710 | 36960 ft | 500 kts | 89° |
| 2026-05-08 08:28 | 50.01012 | -19.46921 | 36968 ft | 499 kts | 89° |
| 2026-05-08 08:28 | 50.01192 | -19.36136 | 36972 ft | 499 kts | 89° |
| 2026-05-08 08:29 | 50.01359 | -19.25363 | 37279 ft | 498 kts | 89° |
| 2026-05-08 08:29 | 50.01439 | -19.20025 | 37782 ft | 493 kts | 89° |
| 2026-05-08 08:29 | 50.01516 | -19.14720 | 37995 ft | 490 kts | 89° |
| 2026-05-08 08:30 | 50.01908 | -18.84111 | 38006 ft | 498 kts | 90° |
| 2026-05-08 08:30 | 50.02477 | -18.19302 | 37902 ft | 490 kts | 90° |
| 2026-05-08 08:31 | 50.02650 | -17.76886 | 38005 ft | 498 kts | 91° |
| 2026-05-08 08:31 | 50.02672 | -17.33328 | 37951 ft | 501 kts | 92° |
| 2026-05-08 08:32 | 50.02622 | -17.11931 | 37902 ft | 490 kts | 92° |
| 2026-05-08 08:32 | 50.02533 | -16.90779 | 37951 ft | 488 kts | 92° |
| 2026-05-08 08:32 | 50.02234 | -16.47800 | 38020 ft | 506 kts | 93° |
| 2026-05-08 08:33 | 50.01776 | -16.04454 | 37921 ft | 491 kts | 94° |
| 2026-05-08 08:33 | 50.01180 | -15.62955 | 38008 ft | 497 kts | 94° |
| 2026-05-08 08:34 | 50.00402 | -15.19477 | 37966 ft | 504 kts | 94° |
| 2026-05-08 08:34 | 49.99963 | -14.97931 | 37918 ft | 493 kts | 94° |
| 2026-05-08 08:34 | 50.00048 | -14.76766 | 37934 ft | 488 kts | 92° |
| 2026-05-08 08:35 | 50.00094 | -14.33995 | 38044 ft | 504 kts | 93° |
| 2026-05-08 08:35 | 50.00095 | -13.90963 | 37931 ft | 500 kts | 90° |
| 2026-05-08 08:36 | 50.01201 | -13.49416 | 37981 ft | 489 kts | 91° |
| 2026-05-08 08:36 | 50.02034 | -13.06431 | 38038 ft | 506 kts | 91° |
| 2026-05-08 08:37 | 50.02729 | -12.62978 | 37941 ft | 494 kts | 92° |
| 2026-05-08 08:37 | 50.03241 | -12.20668 | 38015 ft | 489 kts | 92° |
| 2026-05-08 08:38 | 50.03607 | -11.77604 | 38025 ft | 504 kts | 92° |
| 2026-05-08 08:38 | 50.03819 | -11.34470 | 37944 ft | 490 kts | 93° |
| 2026-05-08 08:39 | 50.03863 | -10.92286 | 38026 ft | 492 kts | 93° |
| 2026-05-08 08:39 | 50.03755 | -10.48986 | 38012 ft | 504 kts | 93° |
| 2026-05-08 08:40 | 50.03489 | -10.05978 | 37958 ft | 488 kts | 94° |
| 2026-05-08 08:40 | 50.03074 | -9.64330 | 38057 ft | 496 kts | 94° |
| 2026-05-08 08:41 | 50.02498 | -9.21481 | 37985 ft | 504 kts | 94° |
| 2026-05-08 08:41 | 50.02253 | -9.06053 | 38012 ft | 495 kts | 94° |
| 2026-05-08 08:42 | 50.02070 | -8.95444 | 38019 ft | 494 kts | 94° |
| 2026-05-08 08:42 | 50.01877 | -8.84780 | 38018 ft | 494 kts | 94° |
| 2026-05-08 08:43 | 50.01674 | -8.74104 | 38015 ft | 494 kts | 94° |
| 2026-05-08 08:43 | 50.01460 | -8.63395 | 38016 ft | 495 kts | 94° |
| 2026-05-08 08:44 | 50.01238 | -8.52687 | 38019 ft | 496 kts | 94° |
| 2026-05-08 08:44 | 50.00398 | -8.15880 | 38030 ft | 498 kts | 95° |
| 2026-05-08 08:45 | 49.98106 | -7.73073 | 38027 ft | 497 kts | 99° |
| 2026-05-08 08:45 | 49.94941 | -7.30363 | 38016 ft | 497 kts | 99° |
| 2026-05-08 08:46 | 49.92206 | -6.94936 | 38012 ft | 496 kts | 99° |
| 2026-05-08 08:46 | 49.88788 | -6.52578 | 38014 ft | 494 kts | 99° |
| 2026-05-08 08:47 | 49.85220 | -6.10317 | 38014 ft | 494 kts | 99° |
| 2026-05-08 08:47 | 49.81503 | -5.68164 | 38013 ft | 494 kts | 100° |
| 2026-05-08 08:48 | 49.77634 | -5.26088 | 38017 ft | 494 kts | 100° |
| 2026-05-08 08:48 | 49.73601 | -4.83963 | 38020 ft | 495 kts | 100° |
| 2026-05-08 08:49 | 49.69411 | -4.41859 | 38025 ft | 497 kts | 100° |
| 2026-05-08 08:49 | 49.65078 | -3.99737 | 38028 ft | 498 kts | 99° |
| 2026-05-08 08:50 | 49.62438 | -3.56991 | 38030 ft | 501 kts | 96° |
| 2026-05-08 08:50 | 49.59639 | -3.14313 | 38030 ft | 503 kts | 96° |
| 2026-05-08 08:51 | 49.56669 | -2.71419 | 38023 ft | 505 kts | 96° |
| 2026-05-08 08:51 | 49.53522 | -2.28351 | 38054 ft | 507 kts | 97° |
| 2026-05-08 08:52 | 49.50203 | -1.85158 | 38049 ft | 508 kts | 97° |
| 2026-05-08 08:52 | 49.46720 | -1.42112 | 38047 ft | 507 kts | 97° |
| 2026-05-08 08:53 | 49.43096 | -0.99395 | 38033 ft | 503 kts | 97° |
| 2026-05-08 08:53 | 49.41518 | -0.81366 | 37959 ft | 496 kts | 97° |
| 2026-05-08 08:54 | 49.41063 | -0.76226 | 37613 ft | 489 kts | 97° |
| 2026-05-08 08:54 | 49.40597 | -0.70991 | 36760 ft | 492 kts | 97° |
| 2026-05-08 08:54 | 49.40134 | -0.65820 | 35734 ft | 500 kts | 96° |
| 2026-05-08 08:54 | 49.39654 | -0.60471 | 34676 ft | 509 kts | 96° |
| 2026-05-08 08:55 | 49.39160 | -0.55008 | 33845 ft | 512 kts | 95° |
| 2026-05-08 08:55 | 49.38668 | -0.49601 | 33273 ft | 508 kts | 95° |
| 2026-05-08 08:55 | 49.38187 | -0.44349 | 32869 ft | 500 kts | 95° |
| 2026-05-08 08:55 | 49.37706 | -0.39115 | 32457 ft | 493 kts | 95° |
| 2026-05-08 08:56 | 49.37228 | -0.33932 | 31995 ft | 487 kts | 96° |
| 2026-05-08 08:56 | 49.36754 | -0.28804 | 31476 ft | 484 kts | 96° |
| 2026-05-08 08:56 | 49.36282 | -0.23717 | 30964 ft | 480 kts | 95° |
| 2026-05-08 08:56 | 49.35896 | -0.18651 | 30499 ft | 475 kts | 93° |
| 2026-05-08 08:57 | 49.35596 | -0.13639 | 30021 ft | 470 kts | 93° |
| 2026-05-08 08:57 | 49.35325 | -0.08685 | 29499 ft | 465 kts | 93° |
| 2026-05-08 08:57 | 49.35054 | -0.03834 | 29020 ft | 459 kts | 94° |
| 2026-05-08 08:57 | 49.34769 | 0.01028 | 28552 ft | 453 kts | 94° |
| 2026-05-08 08:58 | 49.34480 | 0.05738 | 28092 ft | 448 kts | 95° |
| 2026-05-08 08:58 | 49.34182 | 0.10453 | 27626 ft | 443 kts | 95° |
| 2026-05-08 08:58 | 49.33879 | 0.15138 | 27163 ft | 438 kts | 96° |
| 2026-05-08 08:58 | 49.33579 | 0.19767 | 26700 ft | 434 kts | 96° |
| 2026-05-08 08:59 | 49.33279 | 0.24349 | 26252 ft | 429 kts | 97° |
| 2026-05-08 08:59 | 49.32982 | 0.28869 | 25810 ft | 425 kts | 97° |
| 2026-05-08 08:59 | 49.32686 | 0.33360 | 25361 ft | 421 kts | 97° |
| 2026-05-08 08:59 | 49.32391 | 0.37810 | 24932 ft | 417 kts | 97° |
| 2026-05-08 09:00 | 49.32099 | 0.42208 | 24530 ft | 413 kts | 98° |
| 2026-05-08 09:00 | 49.31806 | 0.46560 | 24098 ft | 409 kts | 98° |
| 2026-05-08 09:00 | 49.31532 | 0.50881 | 23685 ft | 406 kts | 96° |
| 2026-05-08 09:00 | 49.31406 | 0.55190 | 23198 ft | 404 kts | 94° |
| 2026-05-08 09:01 | 49.31371 | 0.59487 | 22712 ft | 401 kts | 92° |
| 2026-05-08 09:01 | 49.31361 | 0.63746 | 22214 ft | 398 kts | 92° |
| 2026-05-08 09:01 | 49.31347 | 0.67975 | 21743 ft | 395 kts | 92° |
| 2026-05-08 09:01 | 49.31321 | 0.72179 | 21284 ft | 392 kts | 92° |
| 2026-05-08 09:02 | 49.31284 | 0.76288 | 20846 ft | 390 kts | 93° |
| 2026-05-08 09:02 | 49.31239 | 0.80417 | 20403 ft | 387 kts | 93° |
| 2026-05-08 09:02 | 49.31187 | 0.84525 | 19952 ft | 385 kts | 93° |
| 2026-05-08 09:02 | 49.31131 | 0.88612 | 19542 ft | 382 kts | 93° |
| 2026-05-08 09:03 | 49.31074 | 0.92670 | 19125 ft | 380 kts | 92° |
| 2026-05-08 09:03 | 49.31021 | 0.96700 | 18713 ft | 377 kts | 93° |
| 2026-05-08 09:03 | 49.30964 | 1.00707 | 18282 ft | 375 kts | 93° |
| 2026-05-08 09:03 | 49.30903 | 1.04693 | 17812 ft | 373 kts | 93° |
| 2026-05-08 09:04 | 49.30842 | 1.08642 | 17348 ft | 370 kts | 93° |
| 2026-05-08 09:04 | 49.30779 | 1.12564 | 16920 ft | 367 kts | 93° |
| 2026-05-08 09:04 | 49.30717 | 1.16462 | 16473 ft | 364 kts | 93° |
| 2026-05-08 09:04 | 49.30654 | 1.20329 | 16043 ft | 362 kts | 93° |
| 2026-05-08 09:05 | 49.30590 | 1.24167 | 15599 ft | 360 kts | 93° |
| 2026-05-08 09:05 | 49.30528 | 1.27841 | 15203 ft | 357 kts | 93° |
| 2026-05-08 09:05 | 49.30463 | 1.31633 | 14829 ft | 355 kts | 92° |
| 2026-05-08 09:05 | 49.30400 | 1.35397 | 14437 ft | 353 kts | 92° |
| 2026-05-08 09:06 | 49.30335 | 1.39140 | 14025 ft | 351 kts | 92° |
| 2026-05-08 09:06 | 49.30266 | 1.42866 | 13588 ft | 349 kts | 92° |
| 2026-05-08 09:06 | 49.30196 | 1.46574 | 13179 ft | 347 kts | 92° |
| 2026-05-08 09:06 | 49.30138 | 1.49719 | 12850 ft | 344 kts | 92° |
| 2026-05-08 09:07 | 49.30070 | 1.53371 | 12459 ft | 341 kts | 92° |